WetterOnline ( http://www.wetteronline.de )

Wetter aktuell Palermo

Aktuelles Wetter: Trapani/Birgi (14m)

6-stündlich | Neueste Meldungen
Ortszeit Temperatur Wetter
Sa, 23.06. 20:00 23.8° C leicht bewölkt
Sa, 23.06. 14:00 25.4° C leicht bewölkt
Sa, 23.06. 8:00 23.0° C wolkig
Sa, 23.06. 2:00 20.4° C leicht bewölkt
Fr, 22.06. 20:00 24.8° C leicht bewölkt
Fr, 22.06. 14:00 25.6° C leicht bewölkt
Fr, 22.06. 8:00 20.8° C fast wolkenlos
Fr, 22.06. 2:00 20.0° C leicht bewölkt
Ortszeit Temperatur Wetter
Sa, 23.06. 23:00 21.6° C leicht bewölkt
Sa, 23.06. 22:55 22° C leicht bewölkt
Sa, 23.06. 22:00 22.2° C leicht bewölkt
Sa, 23.06. 21:55 22° C leicht bewölkt
Sa, 23.06. 21:00 22.6° C leicht bewölkt
Sa, 23.06. 20:55 23° C leicht bewölkt
Sa, 23.06. 20:00 23.8° C leicht bewölkt
Sa, 23.06. 19:55 24° C leicht bewölkt
Sa, 23.06. 19:00 24.4° C leicht bewölkt
Ortszeit Relative Feuchte Sichtweite
Sa, 23.06. 20:00 78% 15 km
Sa, 23.06. 14:00 72% 20 km
Sa, 23.06. 8:00 74% 10 km
Sa, 23.06. 2:00 75% 10 km
Fr, 22.06. 20:00 80% 10 km
Fr, 22.06. 14:00 78% 14 km
Fr, 22.06. 8:00 73% 8 km
Fr, 22.06. 2:00 75% 10 km
Ortszeit Relative Feuchte Sichtweite
Sa, 23.06. 23:00 77% 12 km
Sa, 23.06. 22:55 73% >10 km
Sa, 23.06. 22:00 79% 12 km
Sa, 23.06. 21:55 78% >10 km
Sa, 23.06. 21:00 79% 15 km
Sa, 23.06. 20:55 78% >10 km
Sa, 23.06. 20:00 78% 15 km
Sa, 23.06. 19:55 78% >10 km
Sa, 23.06. 19:00 79% 18 km
Ortszeit Niederschlagsmenge Niederschlagsart
Sa, 23.06. 20:00 0.0 l/m2 in 12 Std. -
Sa, 23.06. 14:00 0.0 l/m2 in 6 Std. -
Sa, 23.06. 8:00 0.0 l/m2 in 12 Std. -
Sa, 23.06. 2:00 0.0 l/m2 in 6 Std. -
Fr, 22.06. 20:00 0.0 l/m2 in 12 Std. -
Fr, 22.06. 14:00 0.0 l/m2 in 6 Std. -
Fr, 22.06. 8:00 0.0 l/m2 in 12 Std. -
Fr, 22.06. 2:00 0.0 l/m2 in 6 Std. -
Ortszeit Niederschlagsmenge Niederschlagsart
Sa, 23.06. 23:00 keine Meldung -
Sa, 23.06. 22:55 keine Meldung -
Sa, 23.06. 22:00 keine Meldung -
Sa, 23.06. 21:55 keine Meldung -
Sa, 23.06. 21:00 keine Meldung -
Sa, 23.06. 20:55 keine Meldung -
Sa, 23.06. 20:00 keine Meldung -
Sa, 23.06. 19:55 keine Meldung -
Sa, 23.06. 19:00 keine Meldung -
Ortszeit Stärke Spitze Richtung
km/h Bft. km/h Grad Sektor
Sa, 23.06. 20:00 13 3 - 280° W
Sa, 23.06. 14:00 22 4 - 250° W
Sa, 23.06. 8:00 15 3 - 220° SW
Sa, 23.06. 2:00 11 2 - 120° SO
Fr, 22.06. 20:00 9 2 - 230° SW
Fr, 22.06. 14:00 15 3 - 240° SW
Fr, 22.06. 8:00 7 2 - 150° SO
Fr, 22.06. 2:00 9 2 - 140° SO
Ortszeit Stärke Spitze Richtung
km/h Bft. km/h Grad Sektor
Sa, 23.06. 23:00 4 1 - 260° W
Sa, 23.06. 22:55 4 1 - 260° W
Sa, 23.06. 22:00 9 2 - 260° W
Sa, 23.06. 21:55 9 2 - 260° W
Sa, 23.06. 21:00 11 2 - 290° W
Sa, 23.06. 20:55 11 2 - 290° W
Sa, 23.06. 20:00 13 3 - 280° W
Sa, 23.06. 19:55 13 3 - 280° W
Sa, 23.06. 19:00 15 3 - 260° W
Ortszeit Untergrenze Bedeckung Gattung
total tief tief mittel hoch
Sa, 23.06. 20:00 600 m 3/8 3/8 Cu - -
Sa, 23.06. 14:00 450 m 3/8 3/8 Cu - -
Sa, 23.06. 8:00 240 m 7/8 7/8 Cu - -
Sa, 23.06. 2:00 240 m 2/8 2/8 Cu - -
Fr, 22.06. 20:00 270 m 2/8 2/8 Cu - -
Fr, 22.06. 14:00 300 m 3/8 3/8 Cu - -
Fr, 22.06. 8:00 300 m 1/8 1/8 St - -
Fr, 22.06. 2:00 300 m 2/8 2/8 Cu - -
Ortszeit Bedeckungsgrad in Achtel und Wolkenuntergrenze
Sa, 23.06. 23:00 2(510m)
Sa, 23.06. 22:55 1-2(510m)
Sa, 23.06. 22:00 2(540m)
Sa, 23.06. 21:55 1-2(540m)
Sa, 23.06. 21:00 2(540m)
Sa, 23.06. 20:55 1-2(540m)
Sa, 23.06. 20:00 3(600m)
Sa, 23.06. 19:55 3-4(600m)
Sa, 23.06. 19:00 1(420m) 3(600m)
Ortszeit Luftdruck NN (hPa) Tendenz (hPa in 3 Std.)
Sa, 23.06. 20:00 1014 - 0,7
Sa, 23.06. 14:00 1015 - 0,1
Sa, 23.06. 8:00 1015 + 0,7
Sa, 23.06. 2:00 1015 0,0
Fr, 22.06. 20:00 1014 - 0,5
Fr, 22.06. 14:00 1016 - 0,1
Fr, 22.06. 8:00 1016 + 0,3
Fr, 22.06. 2:00 1017 + 0,1
Ortszeit Luftdruck NN (hPa) Tendenz (hPa in 3 Std.)
Sa, 23.06. 23:00 1015 + 1,3
Sa, 23.06. 22:55 1014 keine Meldung
Sa, 23.06. 22:00 1014 + 0,9
Sa, 23.06. 21:55 1014 keine Meldung
Sa, 23.06. 21:00 1014 - 0,1
Sa, 23.06. 20:55 1013 keine Meldung
Sa, 23.06. 20:00 1014 - 0,7
Sa, 23.06. 19:55 1013 keine Meldung
Sa, 23.06. 19:00 1013 - 1,1
Ortszeit Schneehöhe (cm)
Sa, 23.06. 20:00 -
Sa, 23.06. 14:00 -
Sa, 23.06. 8:00 0
Sa, 23.06. 2:00 -
Fr, 22.06. 20:00 -
Fr, 22.06. 14:00 -
Fr, 22.06. 8:00 -
Fr, 22.06. 2:00 -
Ortszeit Schneehöhe (cm)
Sa, 23.06. 23:00 -
Sa, 23.06. 22:55 -
Sa, 23.06. 22:00 -
Sa, 23.06. 21:55 -
Sa, 23.06. 21:00 -
Sa, 23.06. 20:55 -
Sa, 23.06. 20:00 -
Sa, 23.06. 19:55 -
Sa, 23.06. 19:00 -
Link zu dieser Seite / Seite empfehlen

Das Wetter in ...